Woodridge, Illinois
Current Conditions -  °F | °C
As of 8:55 AM on Wednesday 22 Oct 2014 (Local Time) from KLOT Reporting Station
Clear Clear  
Wind Chill: 40°   Ceiling: Unl
Heat Index: 44°   Visibility: 10mi
Dew Point: 38°   Wind: 6mph
Humidity: 81%   Direction: 160°SSE
Pressure: 30.36"   Gusts: NA
Location:  41.75°N, 88.03°W
Report Text: KLOT 221355Z AUTO 16005KT 10SM CLR 07/04 A3036 RMK AO2 T00650035
Loading
Personal Weather Stations






























Interactive Weather Map
Tropical Storm Tracking
New forecast layout! Learn more

10-Day Weather Forecast

Advertisements
Track Severe Weather on mobile